map of RCQ home
RCQ - Airport
Location
City:  Reconquista, Santa Fe, Argentina
ICAO:SATR
IATA:RCQ

Details
Type:Airport (Aerodrome, Airfield)
Latitude:2912'37"S (-29.210277)
Longitude:5940'48"W (-59.679999)
Datum:WGS 1984
Elevation:161 ft (49 m)
Variation:10.91W (WMM2015 magnetic declination)
-0.19 annual change
Runways:2
Longest:9186 × 164 ft (2800 × 50 m), paved

Time
Time Zone:UTC-3
Local Time:

Weather
METAR:SATR 121305Z 07018KT 6000 TS SCT007 OVC040 FEW045CB 22/20 Q1011

Related Locations
Nearby:
Farthest:YIW: 12428 mi / 20002 km
Yiwu, 33, CN

Find:

   beyond  
but within

Other Information
Maps:
NOTAMs:
Links:
Sources:

  
  • flag of Argentina
  

Sectional Chart

Flight Planning
at skyvector.com

Satellite Image

Google Maps Satellite view

 

Copyright © 2004-2018 Karl L. Swartz. All rights reserved.
The Great Circle Mapper name and logo are trademarks of the Great Circle Mapper.
All other trademarks mentioned herein belong to their respective owners.
Please see credits for attibutions and further copyright information.

  Follow gcmap on Facebook Follow gcmap on Twitter Follow gcmap on Google+ GCmap on LinkedIn

hCard Microformat

Geo Microformat